sensor_id;sensor_type;location;lat;lon;timestamp;P1;durP1;ratioP1;P2;durP2;ratioP2
33327;SDS011;19692;52.998;9.116;2022-08-07T00:01:24;14.57;;;9.97;;
33327;SDS011;19692;52.998;9.116;2022-08-07T00:03:50;11.90;;;10.50;;
33327;SDS011;19692;52.998;9.116;2022-08-07T00:06:16;11.63;;;10.23;;
33327;SDS011;19692;52.998;9.116;2022-08-07T00:08:41;13.07;;;11.03;;
33327;SDS011;19692;52.998;9.116;2022-08-07T00:11:07;12.77;;;10.23;;
33327;SDS011;19692;52.998;9.116;2022-08-07T00:13:33;13.33;;;11.13;;
33327;SDS011;19692;52.998;9.116;2022-08-07T00:16:01;10.73;;;9.60;;
33327;SDS011;19692;52.998;9.116;2022-08-07T00:18:29;11.60;;;10.13;;
33327;SDS011;19692;52.998;9.116;2022-08-07T00:20:56;11.80;;;9.93;;
33327;SDS011;19692;52.998;9.116;2022-08-07T00:23:28;11.47;;;9.97;;
33327;SDS011;19692;52.998;9.116;2022-08-07T00:25:55;11.60;;;10.13;;
33327;SDS011;19692;52.998;9.116;2022-08-07T00:28:22;12.67;;;10.33;;
33327;SDS011;19692;52.998;9.116;2022-08-07T00:30:48;13.77;;;11.07;;
33327;SDS011;19692;52.998;9.116;2022-08-07T00:33:14;11.60;;;9.67;;
33327;SDS011;19692;52.998;9.116;2022-08-07T00:35:40;12.27;;;10.17;;
33327;SDS011;19692;52.998;9.116;2022-08-07T00:38:06;13.00;;;10.70;;
33327;SDS011;19692;52.998;9.116;2022-08-07T00:40:32;12.97;;;10.10;;
33327;SDS011;19692;52.998;9.116;2022-08-07T00:42:57;12.53;;;10.47;;
33327;SDS011;19692;52.998;9.116;2022-08-07T00:45:23;11.27;;;9.70;;
33327;SDS011;19692;52.998;9.116;2022-08-07T00:47:49;12.87;;;11.57;;
33327;SDS011;19692;52.998;9.116;2022-08-07T00:50:15;10.97;;;9.70;;
33327;SDS011;19692;52.998;9.116;2022-08-07T00:52:42;10.97;;;9.77;;
33327;SDS011;19692;52.998;9.116;2022-08-07T00:55:08;12.47;;;10.30;;
33327;SDS011;19692;52.998;9.116;2022-08-07T00:57:34;12.27;;;9.93;;
33327;SDS011;19692;52.998;9.116;2022-08-07T01:00:01;11.83;;;10.03;;
33327;SDS011;19692;52.998;9.116;2022-08-07T01:02:30;11.57;;;10.37;;
33327;SDS011;19692;52.998;9.116;2022-08-07T01:04:57;14.20;;;9.33;;
33327;SDS011;19692;52.998;9.116;2022-08-07T01:07:23;12.93;;;9.53;;
33327;SDS011;19692;52.998;9.116;2022-08-07T01:09:50;12.43;;;10.27;;
33327;SDS011;19692;52.998;9.116;2022-08-07T01:12:16;11.63;;;10.03;;
33327;SDS011;19692;52.998;9.116;2022-08-07T01:14:42;10.93;;;9.70;;
33327;SDS011;19692;52.998;9.116;2022-08-07T01:17:08;11.20;;;10.10;;
33327;SDS011;19692;52.998;9.116;2022-08-07T01:19:34;11.90;;;9.57;;
33327;SDS011;19692;52.998;9.116;2022-08-07T01:22:02;10.90;;;9.53;;
33327;SDS011;19692;52.998;9.116;2022-08-07T01:24:28;11.10;;;9.07;;
33327;SDS011;19692;52.998;9.116;2022-08-07T01:26:54;11.73;;;10.17;;
33327;SDS011;19692;52.998;9.116;2022-08-07T01:29:24;10.90;;;9.67;;
33327;SDS011;19692;52.998;9.116;2022-08-07T01:31:51;12.37;;;10.00;;
33327;SDS011;19692;52.998;9.116;2022-08-07T01:34:18;11.80;;;9.57;;
33327;SDS011;19692;52.998;9.116;2022-08-07T01:36:44;12.17;;;9.67;;
33327;SDS011;19692;52.998;9.116;2022-08-07T01:39:12;10.87;;;9.30;;
33327;SDS011;19692;52.998;9.116;2022-08-07T01:41:39;12.20;;;10.03;;
33327;SDS011;19692;52.998;9.116;2022-08-07T01:44:07;10.90;;;9.73;;
33327;SDS011;19692;52.998;9.116;2022-08-07T01:46:34;11.83;;;9.80;;
33327;SDS011;19692;52.998;9.116;2022-08-07T01:49:00;14.03;;;11.27;;
33327;SDS011;19692;52.998;9.116;2022-08-07T01:51:26;11.70;;;9.50;;
33327;SDS011;19692;52.998;9.116;2022-08-07T01:53:54;13.70;;;11.27;;
33327;SDS011;19692;52.998;9.116;2022-08-07T01:56:26;13.07;;;10.80;;
33327;SDS011;19692;52.998;9.116;2022-08-07T01:59:02;12.60;;;10.43;;
33327;SDS011;19692;52.998;9.116;2022-08-07T02:01:41;12.90;;;11.20;;
33327;SDS011;19692;52.998;9.116;2022-08-07T02:04:14;13.10;;;10.80;;
33327;SDS011;19692;52.998;9.116;2022-08-07T02:06:45;14.33;;;11.23;;
33327;SDS011;19692;52.998;9.116;2022-08-07T02:09:13;13.40;;;11.63;;
33327;SDS011;19692;52.998;9.116;2022-08-07T02:11:43;14.37;;;10.87;;
33327;SDS011;19692;52.998;9.116;2022-08-07T02:14:13;14.07;;;11.83;;
33327;SDS011;19692;52.998;9.116;2022-08-07T02:16:40;12.23;;;10.47;;
33327;SDS011;19692;52.998;9.116;2022-08-07T02:19:08;15.50;;;10.93;;
33327;SDS011;19692;52.998;9.116;2022-08-07T02:21:37;14.93;;;11.30;;
33327;SDS011;19692;52.998;9.116;2022-08-07T02:24:04;13.93;;;11.27;;
33327;SDS011;19692;52.998;9.116;2022-08-07T02:26:31;13.60;;;10.20;;
33327;SDS011;19692;52.998;9.116;2022-08-07T02:29:01;13.83;;;10.73;;
33327;SDS011;19692;52.998;9.116;2022-08-07T02:31:29;15.63;;;11.33;;
33327;SDS011;19692;52.998;9.116;2022-08-07T02:33:56;13.73;;;12.20;;
33327;SDS011;19692;52.998;9.116;2022-08-07T02:36:24;12.73;;;10.53;;
33327;SDS011;19692;52.998;9.116;2022-08-07T02:38:51;13.67;;;10.83;;
33327;SDS011;19692;52.998;9.116;2022-08-07T02:41:19;12.80;;;10.73;;
33327;SDS011;19692;52.998;9.116;2022-08-07T02:43:45;12.03;;;10.00;;
33327;SDS011;19692;52.998;9.116;2022-08-07T02:46:14;12.20;;;9.77;;
33327;SDS011;19692;52.998;9.116;2022-08-07T02:48:42;12.93;;;10.30;;
33327;SDS011;19692;52.998;9.116;2022-08-07T02:51:12;11.80;;;10.17;;
33327;SDS011;19692;52.998;9.116;2022-08-07T02:53:42;16.93;;;11.83;;
33327;SDS011;19692;52.998;9.116;2022-08-07T02:56:15;13.43;;;10.27;;
33327;SDS011;19692;52.998;9.116;2022-08-07T02:58:45;12.80;;;10.90;;
33327;SDS011;19692;52.998;9.116;2022-08-07T03:01:11;14.00;;;11.00;;
33327;SDS011;19692;52.998;9.116;2022-08-07T03:03:37;12.13;;;10.40;;
33327;SDS011;19692;52.998;9.116;2022-08-07T03:06:04;13.00;;;11.57;;
33327;SDS011;19692;52.998;9.116;2022-08-07T03:08:30;11.57;;;10.37;;
33327;SDS011;19692;52.998;9.116;2022-08-07T03:10:57;12.43;;;11.03;;
33327;SDS011;19692;52.998;9.116;2022-08-07T03:13:24;12.73;;;10.30;;
33327;SDS011;19692;52.998;9.116;2022-08-07T03:15:49;11.47;;;10.27;;
33327;SDS011;19692;52.998;9.116;2022-08-07T03:18:16;14.30;;;10.10;;
33327;SDS011;19692;52.998;9.116;2022-08-07T03:20:42;10.90;;;9.80;;
33327;SDS011;19692;52.998;9.116;2022-08-07T03:23:08;11.63;;;10.40;;
33327;SDS011;19692;52.998;9.116;2022-08-07T03:25:36;12.00;;;10.60;;
33327;SDS011;19692;52.998;9.116;2022-08-07T03:28:05;13.80;;;11.10;;
33327;SDS011;19692;52.998;9.116;2022-08-07T03:30:34;14.77;;;10.47;;
33327;SDS011;19692;52.998;9.116;2022-08-07T03:33:01;13.10;;;10.73;;
33327;SDS011;19692;52.998;9.116;2022-08-07T03:35:28;14.00;;;10.97;;
33327;SDS011;19692;52.998;9.116;2022-08-07T03:37:56;14.30;;;10.97;;
33327;SDS011;19692;52.998;9.116;2022-08-07T03:40:28;13.43;;;10.50;;
33327;SDS011;19692;52.998;9.116;2022-08-07T03:42:54;13.43;;;10.77;;
33327;SDS011;19692;52.998;9.116;2022-08-07T03:45:21;14.27;;;10.97;;
33327;SDS011;19692;52.998;9.116;2022-08-07T03:47:49;12.93;;;10.47;;
33327;SDS011;19692;52.998;9.116;2022-08-07T03:50:16;11.17;;;9.73;;
33327;SDS011;19692;52.998;9.116;2022-08-07T03:52:44;12.63;;;10.93;;
33327;SDS011;19692;52.998;9.116;2022-08-07T03:55:11;15.43;;;10.70;;
33327;SDS011;19692;52.998;9.116;2022-08-07T03:57:37;13.27;;;10.10;;
33327;SDS011;19692;52.998;9.116;2022-08-07T04:00:03;13.30;;;10.77;;
33327;SDS011;19692;52.998;9.116;2022-08-07T04:02:30;11.70;;;10.40;;
33327;SDS011;19692;52.998;9.116;2022-08-07T04:04:56;13.00;;;10.37;;
33327;SDS011;19692;52.998;9.116;2022-08-07T04:07:22;16.83;;;10.07;;
33327;SDS011;19692;52.998;9.116;2022-08-07T04:09:48;11.67;;;9.57;;
33327;SDS011;19692;52.998;9.116;2022-08-07T04:12:15;10.33;;;9.27;;
33327;SDS011;19692;52.998;9.116;2022-08-07T04:14:42;12.57;;;10.10;;
33327;SDS011;19692;52.998;9.116;2022-08-07T04:17:08;12.80;;;11.27;;
33327;SDS011;19692;52.998;9.116;2022-08-07T04:19:35;11.53;;;9.00;;
33327;SDS011;19692;52.998;9.116;2022-08-07T04:22:04;9.63;;;8.57;;
33327;SDS011;19692;52.998;9.116;2022-08-07T04:24:30;11.87;;;9.50;;
33327;SDS011;19692;52.998;9.116;2022-08-07T04:26:57;11.87;;;9.50;;
33327;SDS011;19692;52.998;9.116;2022-08-07T04:29:23;12.57;;;9.90;;
33327;SDS011;19692;52.998;9.116;2022-08-07T04:31:49;15.27;;;9.50;;
33327;SDS011;19692;52.998;9.116;2022-08-07T04:34:15;14.83;;;9.53;;
33327;SDS011;19692;52.998;9.116;2022-08-07T04:36:42;11.17;;;8.43;;
33327;SDS011;19692;52.998;9.116;2022-08-07T04:39:08;11.23;;;8.63;;
33327;SDS011;19692;52.998;9.116;2022-08-07T04:41:34;10.63;;;9.53;;
33327;SDS011;19692;52.998;9.116;2022-08-07T04:44:00;11.00;;;9.07;;
33327;SDS011;19692;52.998;9.116;2022-08-07T04:46:35;11.60;;;9.70;;
33327;SDS011;19692;52.998;9.116;2022-08-07T04:49:33;11.03;;;9.07;;
33327;SDS011;19692;52.998;9.116;2022-08-07T04:52:20;11.67;;;9.30;;
33327;SDS011;19692;52.998;9.116;2022-08-07T04:55:00;14.07;;;11.17;;
33327;SDS011;19692;52.998;9.116;2022-08-07T04:57:48;12.80;;;10.20;;
33327;SDS011;19692;52.998;9.116;2022-08-07T05:00:37;11.23;;;10.03;;
33327;SDS011;19692;52.998;9.116;2022-08-07T05:03:38;12.17;;;9.90;;
33327;SDS011;19692;52.998;9.116;2022-08-07T05:06:13;12.47;;;10.53;;
33327;SDS011;19692;52.998;9.116;2022-08-07T05:09:09;13.40;;;11.23;;
33327;SDS011;19692;52.998;9.116;2022-08-07T05:11:45;13.00;;;11.33;;
33327;SDS011;19692;52.998;9.116;2022-08-07T05:14:24;15.00;;;11.00;;
33327;SDS011;19692;52.998;9.116;2022-08-07T05:16:56;13.97;;;11.40;;
33327;SDS011;19692;52.998;9.116;2022-08-07T05:19:28;12.93;;;11.20;;
33327;SDS011;19692;52.998;9.116;2022-08-07T05:22:00;14.17;;;11.50;;
33327;SDS011;19692;52.998;9.116;2022-08-07T05:24:28;14.87;;;11.70;;
33327;SDS011;19692;52.998;9.116;2022-08-07T05:26:56;16.57;;;13.53;;
33327;SDS011;19692;52.998;9.116;2022-08-07T05:29:24;17.07;;;13.43;;
33327;SDS011;19692;52.998;9.116;2022-08-07T05:31:51;16.17;;;13.27;;
33327;SDS011;19692;52.998;9.116;2022-08-07T05:34:18;18.63;;;14.37;;
33327;SDS011;19692;52.998;9.116;2022-08-07T05:36:45;17.93;;;13.73;;
33327;SDS011;19692;52.998;9.116;2022-08-07T05:39:15;16.40;;;13.60;;
33327;SDS011;19692;52.998;9.116;2022-08-07T05:41:46;17.00;;;14.10;;
33327;SDS011;19692;52.998;9.116;2022-08-07T05:44:13;17.47;;;13.83;;
33327;SDS011;19692;52.998;9.116;2022-08-07T05:46:42;14.93;;;13.13;;
33327;SDS011;19692;52.998;9.116;2022-08-07T05:49:08;15.90;;;13.20;;
33327;SDS011;19692;52.998;9.116;2022-08-07T05:51:35;14.43;;;12.70;;
33327;SDS011;19692;52.998;9.116;2022-08-07T05:54:02;16.90;;;13.67;;
33327;SDS011;19692;52.998;9.116;2022-08-07T05:56:28;17.23;;;13.40;;
33327;SDS011;19692;52.998;9.116;2022-08-07T05:58:58;17.70;;;13.73;;
33327;SDS011;19692;52.998;9.116;2022-08-07T06:01:27;15.10;;;12.60;;
33327;SDS011;19692;52.998;9.116;2022-08-07T06:03:54;16.10;;;13.17;;
33327;SDS011;19692;52.998;9.116;2022-08-07T06:06:22;15.27;;;12.80;;
33327;SDS011;19692;52.998;9.116;2022-08-07T06:08:48;16.17;;;14.50;;
33327;SDS011;19692;52.998;9.116;2022-08-07T06:11:16;16.17;;;12.87;;
33327;SDS011;19692;52.998;9.116;2022-08-07T06:13:42;14.40;;;11.73;;
33327;SDS011;19692;52.998;9.116;2022-08-07T06:16:08;15.00;;;12.50;;
33327;SDS011;19692;52.998;9.116;2022-08-07T06:18:34;16.37;;;12.40;;
33327;SDS011;19692;52.998;9.116;2022-08-07T06:21:02;18.63;;;15.43;;
33327;SDS011;19692;52.998;9.116;2022-08-07T06:23:29;16.57;;;13.00;;
33327;SDS011;19692;52.998;9.116;2022-08-07T06:25:56;13.93;;;12.17;;
33327;SDS011;19692;52.998;9.116;2022-08-07T06:28:22;14.30;;;11.90;;
33327;SDS011;19692;52.998;9.116;2022-08-07T06:30:49;14.80;;;11.10;;
33327;SDS011;19692;52.998;9.116;2022-08-07T06:33:15;16.00;;;12.07;;
33327;SDS011;19692;52.998;9.116;2022-08-07T06:35:42;17.30;;;13.10;;
33327;SDS011;19692;52.998;9.116;2022-08-07T06:38:07;14.33;;;12.13;;
33327;SDS011;19692;52.998;9.116;2022-08-07T06:40:34;11.97;;;10.77;;
33327;SDS011;19692;52.998;9.116;2022-08-07T06:43:05;14.10;;;12.17;;
33327;SDS011;19692;52.998;9.116;2022-08-07T06:45:34;13.60;;;11.10;;
33327;SDS011;19692;52.998;9.116;2022-08-07T06:48:00;12.93;;;11.53;;
33327;SDS011;19692;52.998;9.116;2022-08-07T06:50:27;15.87;;;10.90;;
33327;SDS011;19692;52.998;9.116;2022-08-07T06:52:54;16.00;;;13.33;;
33327;SDS011;19692;52.998;9.116;2022-08-07T06:55:23;12.50;;;10.83;;
33327;SDS011;19692;52.998;9.116;2022-08-07T06:57:54;14.00;;;11.17;;
33327;SDS011;19692;52.998;9.116;2022-08-07T07:00:30;12.40;;;11.00;;
33327;SDS011;19692;52.998;9.116;2022-08-07T07:03:00;13.03;;;10.90;;
33327;SDS011;19692;52.998;9.116;2022-08-07T07:05:27;14.03;;;10.90;;
33327;SDS011;19692;52.998;9.116;2022-08-07T07:07:53;11.67;;;10.37;;
33327;SDS011;19692;52.998;9.116;2022-08-07T07:10:28;13.73;;;11.27;;
33327;SDS011;19692;52.998;9.116;2022-08-07T07:13:10;13.47;;;12.10;;
33327;SDS011;19692;52.998;9.116;2022-08-07T07:15:42;14.27;;;10.80;;
33327;SDS011;19692;52.998;9.116;2022-08-07T07:21:02;14.17;;;10.90;;
33327;SDS011;19692;52.998;9.116;2022-08-07T07:23:37;12.70;;;11.33;;
33327;SDS011;19692;52.998;9.116;2022-08-07T07:26:03;12.33;;;11.10;;
33327;SDS011;19692;52.998;9.116;2022-08-07T07:28:36;11.17;;;10.07;;
33327;SDS011;19692;52.998;9.116;2022-08-07T07:31:22;11.60;;;10.33;;
33327;SDS011;19692;52.998;9.116;2022-08-07T07:33:57;11.67;;;10.47;;
33327;SDS011;19692;52.998;9.116;2022-08-07T07:36:35;12.10;;;10.40;;
33327;SDS011;19692;52.998;9.116;2022-08-07T07:39:03;11.53;;;10.03;;
33327;SDS011;19692;52.998;9.116;2022-08-07T07:41:30;10.90;;;9.47;;
33327;SDS011;19692;52.998;9.116;2022-08-07T07:43:59;13.80;;;10.17;;
33327;SDS011;19692;52.998;9.116;2022-08-07T07:46:27;10.60;;;9.60;;
33327;SDS011;19692;52.998;9.116;2022-08-07T07:48:56;11.03;;;9.83;;
33327;SDS011;19692;52.998;9.116;2022-08-07T07:51:22;10.43;;;9.33;;
33327;SDS011;19692;52.998;9.116;2022-08-07T07:53:50;9.50;;;8.60;;
33327;SDS011;19692;52.998;9.116;2022-08-07T07:56:18;10.87;;;9.77;;
33327;SDS011;19692;52.998;9.116;2022-08-07T07:58:47;9.67;;;8.63;;
33327;SDS011;19692;52.998;9.116;2022-08-07T08:01:14;9.93;;;8.93;;
33327;SDS011;19692;52.998;9.116;2022-08-07T08:03:41;9.83;;;8.37;;
33327;SDS011;19692;52.998;9.116;2022-08-07T08:06:08;11.03;;;9.67;;
33327;SDS011;19692;52.998;9.116;2022-08-07T08:08:35;8.87;;;7.97;;
33327;SDS011;19692;52.998;9.116;2022-08-07T08:11:04;11.03;;;9.90;;
33327;SDS011;19692;52.998;9.116;2022-08-07T08:13:32;10.77;;;8.60;;
33327;SDS011;19692;52.998;9.116;2022-08-07T08:16:04;9.93;;;8.30;;
33327;SDS011;19692;52.998;9.116;2022-08-07T08:18:31;8.77;;;7.87;;
33327;SDS011;19692;52.998;9.116;2022-08-07T08:21:00;11.20;;;10.10;;
33327;SDS011;19692;52.998;9.116;2022-08-07T08:23:27;12.70;;;11.50;;
33327;SDS011;19692;52.998;9.116;2022-08-07T08:26:14;9.10;;;8.30;;
33327;SDS011;19692;52.998;9.116;2022-08-07T08:29:00;8.90;;;8.10;;
33327;SDS011;19692;52.998;9.116;2022-08-07T08:31:29;9.87;;;8.97;;
33327;SDS011;19692;52.998;9.116;2022-08-07T08:34:00;9.80;;;8.40;;
33327;SDS011;19692;52.998;9.116;2022-08-07T08:36:29;8.17;;;7.37;;
33327;SDS011;19692;52.998;9.116;2022-08-07T08:38:57;8.40;;;7.27;;
33327;SDS011;19692;52.998;9.116;2022-08-07T08:41:30;8.60;;;7.40;;
33327;SDS011;19692;52.998;9.116;2022-08-07T08:47:01;8.60;;;7.80;;
33327;SDS011;19692;52.998;9.116;2022-08-07T08:52:25;8.17;;;7.40;;
33327;SDS011;19692;52.998;9.116;2022-08-07T09:00:53;8.83;;;7.63;;
33327;SDS011;19692;52.998;9.116;2022-08-07T09:03:49;8.07;;;7.07;;
33327;SDS011;19692;52.998;9.116;2022-08-07T09:09:30;8.43;;;7.70;;
33327;SDS011;19692;52.998;9.116;2022-08-07T09:17:40;7.27;;;6.67;;
33327;SDS011;19692;52.998;9.116;2022-08-07T09:20:48;8.37;;;7.40;;
33327;SDS011;19692;52.998;9.116;2022-08-07T09:26:23;8.43;;;7.53;;
33327;SDS011;19692;52.998;9.116;2022-08-07T09:29:54;8.50;;;6.53;;
33327;SDS011;19692;52.998;9.116;2022-08-07T09:34:59;7.40;;;6.70;;
33327;SDS011;19692;52.998;9.116;2022-08-07T09:37:56;7.73;;;7.03;;
33327;SDS011;19692;52.998;9.116;2022-08-07T09:40:49;7.67;;;6.97;;
33327;SDS011;19692;52.998;9.116;2022-08-07T09:43:50;8.97;;;6.50;;
33327;SDS011;19692;52.998;9.116;2022-08-07T09:52:39;8.10;;;6.50;;
33327;SDS011;19692;52.998;9.116;2022-08-07T09:55:28;7.70;;;7.03;;
33327;SDS011;19692;52.998;9.116;2022-08-07T10:01:31;7.17;;;6.47;;
33327;SDS011;19692;52.998;9.116;2022-08-07T10:07:17;11.03;;;7.37;;
33327;SDS011;19692;52.998;9.116;2022-08-07T10:15:59;6.40;;;5.90;;
33327;SDS011;19692;52.998;9.116;2022-08-07T10:18:48;5.90;;;5.40;;
33327;SDS011;19692;52.998;9.116;2022-08-07T10:21:34;7.27;;;5.67;;
33327;SDS011;19692;52.998;9.116;2022-08-07T10:30:04;6.87;;;5.40;;
33327;SDS011;19692;52.998;9.116;2022-08-07T10:38:01;6.10;;;5.60;;
33327;SDS011;19692;52.998;9.116;2022-08-07T10:43:54;7.00;;;6.40;;
33327;SDS011;19692;52.998;9.116;2022-08-07T10:46:54;6.37;;;5.10;;
33327;SDS011;19692;52.998;9.116;2022-08-07T10:49:25;6.03;;;5.57;;
33327;SDS011;19692;52.998;9.116;2022-08-07T10:52:11;5.57;;;5.07;;
33327;SDS011;19692;52.998;9.116;2022-08-07T10:55:21;6.27;;;5.50;;
33327;SDS011;19692;52.998;9.116;2022-08-07T11:03:50;7.10;;;5.20;;
33327;SDS011;19692;52.998;9.116;2022-08-07T11:07:05;4.63;;;4.23;;
33327;SDS011;19692;52.998;9.116;2022-08-07T11:09:48;4.90;;;4.37;;
33327;SDS011;19692;52.998;9.116;2022-08-07T11:12:29;5.30;;;4.77;;
33327;SDS011;19692;52.998;9.116;2022-08-07T11:15:08;4.40;;;4.00;;
33327;SDS011;19692;52.998;9.116;2022-08-07T11:25:50;5.20;;;4.70;;
33327;SDS011;19692;52.998;9.116;2022-08-07T11:28:35;4.83;;;4.33;;
33327;SDS011;19692;52.998;9.116;2022-08-07T11:31:26;4.70;;;4.20;;
33327;SDS011;19692;52.998;9.116;2022-08-07T11:34:28;4.47;;;4.07;;
33327;SDS011;19692;52.998;9.116;2022-08-07T11:43:25;4.40;;;4.03;;
33327;SDS011;19692;52.998;9.116;2022-08-07T11:51:34;8.93;;;4.50;;
33327;SDS011;19692;52.998;9.116;2022-08-07T11:54:37;6.43;;;4.20;;
33327;SDS011;19692;52.998;9.116;2022-08-07T11:57:33;5.90;;;5.40;;
33327;SDS011;19692;52.998;9.116;2022-08-07T12:00:31;9.47;;;8.57;;
33327;SDS011;19692;52.998;9.116;2022-08-07T12:03:10;5.30;;;4.80;;
33327;SDS011;19692;52.998;9.116;2022-08-07T12:06:33;4.73;;;4.33;;
33327;SDS011;19692;52.998;9.116;2022-08-07T12:09:23;8.60;;;6.63;;
33327;SDS011;19692;52.998;9.116;2022-08-07T12:12:03;4.53;;;4.13;;
33327;SDS011;19692;52.998;9.116;2022-08-07T12:14:37;4.70;;;4.30;;
33327;SDS011;19692;52.998;9.116;2022-08-07T12:17:12;4.23;;;3.83;;
33327;SDS011;19692;52.998;9.116;2022-08-07T12:19:45;4.50;;;4.10;;
33327;SDS011;19692;52.998;9.116;2022-08-07T12:22:26;4.80;;;4.40;;
33327;SDS011;19692;52.998;9.116;2022-08-07T12:25:09;4.13;;;3.73;;
33327;SDS011;19692;52.998;9.116;2022-08-07T12:28:02;6.67;;;4.23;;
33327;SDS011;19692;52.998;9.116;2022-08-07T12:30:37;4.03;;;3.73;;
33327;SDS011;19692;52.998;9.116;2022-08-07T12:33:10;3.90;;;3.60;;
33327;SDS011;19692;52.998;9.116;2022-08-07T12:35:42;4.77;;;4.37;;
33327;SDS011;19692;52.998;9.116;2022-08-07T12:38:11;6.30;;;4.50;;
33327;SDS011;19692;52.998;9.116;2022-08-07T12:40:39;5.20;;;4.70;;
33327;SDS011;19692;52.998;9.116;2022-08-07T12:43:07;5.10;;;4.67;;
33327;SDS011;19692;52.998;9.116;2022-08-07T12:45:46;4.43;;;4.03;;
33327;SDS011;19692;52.998;9.116;2022-08-07T12:48:34;4.33;;;4.03;;
33327;SDS011;19692;52.998;9.116;2022-08-07T12:51:15;4.33;;;3.93;;
33327;SDS011;19692;52.998;9.116;2022-08-07T12:53:55;4.50;;;4.10;;
33327;SDS011;19692;52.998;9.116;2022-08-07T12:59:02;4.60;;;3.43;;
33327;SDS011;19692;52.998;9.116;2022-08-07T13:01:43;3.70;;;3.40;;
33327;SDS011;19692;52.998;9.116;2022-08-07T13:05:05;3.33;;;3.03;;
33327;SDS011;19692;52.998;9.116;2022-08-07T13:07:51;3.90;;;3.60;;
33327;SDS011;19692;52.998;9.116;2022-08-07T13:10:46;3.83;;;3.53;;
33327;SDS011;19692;52.998;9.116;2022-08-07T13:16:30;3.97;;;3.67;;
33327;SDS011;19692;52.998;9.116;2022-08-07T13:22:00;3.90;;;3.60;;
33327;SDS011;19692;52.998;9.116;2022-08-07T13:27:39;5.13;;;4.73;;
33327;SDS011;19692;52.998;9.116;2022-08-07T13:30:09;4.53;;;4.10;;
33327;SDS011;19692;52.998;9.116;2022-08-07T13:32:54;5.90;;;5.00;;
33327;SDS011;19692;52.998;9.116;2022-08-07T13:35:49;5.10;;;4.70;;
33327;SDS011;19692;52.998;9.116;2022-08-07T13:38:30;5.47;;;4.60;;
33327;SDS011;19692;52.998;9.116;2022-08-07T13:41:29;3.93;;;3.53;;
33327;SDS011;19692;52.998;9.116;2022-08-07T13:44:04;3.57;;;3.27;;
33327;SDS011;19692;52.998;9.116;2022-08-07T13:46:32;4.83;;;4.33;;
33327;SDS011;19692;52.998;9.116;2022-08-07T13:49:02;4.67;;;4.27;;
33327;SDS011;19692;52.998;9.116;2022-08-07T13:51:33;4.67;;;4.27;;
33327;SDS011;19692;52.998;9.116;2022-08-07T13:54:02;4.50;;;4.10;;
33327;SDS011;19692;52.998;9.116;2022-08-07T13:56:33;3.90;;;3.57;;
33327;SDS011;19692;52.998;9.116;2022-08-07T13:59:00;4.07;;;3.50;;
33327;SDS011;19692;52.998;9.116;2022-08-07T14:01:42;3.90;;;3.60;;
33327;SDS011;19692;52.998;9.116;2022-08-07T14:04:17;7.17;;;4.13;;
33327;SDS011;19692;52.998;9.116;2022-08-07T14:06:48;4.73;;;4.07;;
33327;SDS011;19692;52.998;9.116;2022-08-07T14:09:23;4.70;;;3.87;;
33327;SDS011;19692;52.998;9.116;2022-08-07T14:11:53;4.70;;;3.73;;
33327;SDS011;19692;52.998;9.116;2022-08-07T14:14:25;4.27;;;3.87;;
33327;SDS011;19692;52.998;9.116;2022-08-07T14:16:55;4.33;;;3.93;;
33327;SDS011;19692;52.998;9.116;2022-08-07T14:19:35;4.43;;;4.00;;
33327;SDS011;19692;52.998;9.116;2022-08-07T14:22:17;3.90;;;3.57;;
33327;SDS011;19692;52.998;9.116;2022-08-07T14:24:53;4.50;;;4.10;;
33327;SDS011;19692;52.998;9.116;2022-08-07T14:28:07;4.07;;;3.77;;
33327;SDS011;19692;52.998;9.116;2022-08-07T14:30:15;5.87;;;5.30;;
33327;SDS011;19692;52.998;9.116;2022-08-07T14:32:44;5.10;;;4.20;;
33327;SDS011;19692;52.998;9.116;2022-08-07T14:35:23;4.83;;;4.43;;
33327;SDS011;19692;52.998;9.116;2022-08-07T14:37:53;4.83;;;4.43;;
33327;SDS011;19692;52.998;9.116;2022-08-07T14:40:22;4.63;;;4.13;;
33327;SDS011;19692;52.998;9.116;2022-08-07T14:43:04;4.20;;;3.90;;
33327;SDS011;19692;52.998;9.116;2022-08-07T14:45:42;5.37;;;4.13;;
33327;SDS011;19692;52.998;9.116;2022-08-07T14:48:12;4.93;;;4.53;;
33327;SDS011;19692;52.998;9.116;2022-08-07T14:50:46;4.47;;;4.03;;
33327;SDS011;19692;52.998;9.116;2022-08-07T14:53:16;4.27;;;3.80;;
33327;SDS011;19692;52.998;9.116;2022-08-07T14:55:44;3.90;;;3.60;;
33327;SDS011;19692;52.998;9.116;2022-08-07T14:58:12;4.77;;;3.83;;
33327;SDS011;19692;52.998;9.116;2022-08-07T15:00:41;5.07;;;4.33;;
33327;SDS011;19692;52.998;9.116;2022-08-07T15:03:11;6.23;;;4.30;;
33327;SDS011;19692;52.998;9.116;2022-08-07T15:05:38;4.83;;;4.17;;
33327;SDS011;19692;52.998;9.116;2022-08-07T15:08:06;4.37;;;3.97;;
33327;SDS011;19692;52.998;9.116;2022-08-07T15:10:38;5.00;;;4.50;;
33327;SDS011;19692;52.998;9.116;2022-08-07T15:13:09;4.77;;;4.10;;
33327;SDS011;19692;52.998;9.116;2022-08-07T15:15:44;4.50;;;4.10;;
33327;SDS011;19692;52.998;9.116;2022-08-07T15:18:17;4.20;;;3.80;;
33327;SDS011;19692;52.998;9.116;2022-08-07T15:20:46;4.60;;;4.20;;
33327;SDS011;19692;52.998;9.116;2022-08-07T15:23:18;4.63;;;4.23;;
33327;SDS011;19692;52.998;9.116;2022-08-07T15:25:50;11.80;;;10.57;;
33327;SDS011;19692;52.998;9.116;2022-08-07T15:28:21;7.27;;;6.57;;
33327;SDS011;19692;52.998;9.116;2022-08-07T15:30:54;5.00;;;4.50;;
33327;SDS011;19692;52.998;9.116;2022-08-07T15:33:26;4.63;;;4.23;;
33327;SDS011;19692;52.998;9.116;2022-08-07T15:35:52;4.37;;;3.97;;
33327;SDS011;19692;52.998;9.116;2022-08-07T15:38:27;4.80;;;4.30;;
33327;SDS011;19692;52.998;9.116;2022-08-07T15:40:55;4.60;;;4.20;;
33327;SDS011;19692;52.998;9.116;2022-08-07T15:43:26;4.37;;;3.97;;
33327;SDS011;19692;52.998;9.116;2022-08-07T15:45:56;4.30;;;3.93;;
33327;SDS011;19692;52.998;9.116;2022-08-07T15:48:29;4.40;;;4.00;;
33327;SDS011;19692;52.998;9.116;2022-08-07T15:51:03;5.10;;;4.13;;
33327;SDS011;19692;52.998;9.116;2022-08-07T15:53:33;4.87;;;4.37;;
33327;SDS011;19692;52.998;9.116;2022-08-07T15:56:10;4.83;;;4.40;;
33327;SDS011;19692;52.998;9.116;2022-08-07T15:58:51;4.93;;;4.53;;
33327;SDS011;19692;52.998;9.116;2022-08-07T16:01:26;4.60;;;4.13;;
33327;SDS011;19692;52.998;9.116;2022-08-07T16:03:58;5.70;;;4.43;;
33327;SDS011;19692;52.998;9.116;2022-08-07T16:06:27;8.83;;;5.23;;
33327;SDS011;19692;52.998;9.116;2022-08-07T16:08:58;5.17;;;4.67;;
33327;SDS011;19692;52.998;9.116;2022-08-07T16:11:34;12.63;;;11.33;;
33327;SDS011;19692;52.998;9.116;2022-08-07T16:14:52;5.03;;;4.63;;
33327;SDS011;19692;52.998;9.116;2022-08-07T16:18:07;5.47;;;4.97;;
33327;SDS011;19692;52.998;9.116;2022-08-07T16:20:53;5.30;;;4.17;;
33327;SDS011;19692;52.998;9.116;2022-08-07T16:32:34;5.17;;;4.73;;
33327;SDS011;19692;52.998;9.116;2022-08-07T16:35:30;5.57;;;4.53;;
33327;SDS011;19692;52.998;9.116;2022-08-07T16:44:00;5.00;;;4.60;;
33327;SDS011;19692;52.998;9.116;2022-08-07T16:53:22;7.30;;;5.33;;
33327;SDS011;19692;52.998;9.116;2022-08-07T16:56:16;5.20;;;4.70;;
33327;SDS011;19692;52.998;9.116;2022-08-07T16:59:00;6.03;;;5.43;;
33327;SDS011;19692;52.998;9.116;2022-08-07T17:07:31;39.87;;;34.77;;
33327;SDS011;19692;52.998;9.116;2022-08-07T17:10:17;5.97;;;5.23;;
33327;SDS011;19692;52.998;9.116;2022-08-07T17:21:29;6.27;;;5.67;;
33327;SDS011;19692;52.998;9.116;2022-08-07T17:24:21;5.60;;;4.83;;
33327;SDS011;19692;52.998;9.116;2022-08-07T17:26:57;5.60;;;5.10;;
33327;SDS011;19692;52.998;9.116;2022-08-07T17:35:31;5.60;;;5.10;;